sensor_id;sensor_type;location;lat;lon;timestamp;P1;durP1;ratioP1;P2;durP2;ratioP2
74577;SDS011;63173;49.086;33.418;2023-05-27T00:02:00;16.52;;;8.65;;
74577;SDS011;63173;49.086;33.418;2023-05-27T00:04:25;15.80;;;9.00;;
74577;SDS011;63173;49.086;33.418;2023-05-27T00:06:51;13.52;;;8.10;;
74577;SDS011;63173;49.086;33.418;2023-05-27T00:09:16;10.65;;;7.53;;
74577;SDS011;63173;49.086;33.418;2023-05-27T00:11:42;11.20;;;7.95;;
74577;SDS011;63173;49.086;33.418;2023-05-27T00:14:07;13.55;;;8.48;;
74577;SDS011;63173;49.086;33.418;2023-05-27T00:16:32;11.52;;;8.32;;
74577;SDS011;63173;49.086;33.418;2023-05-27T00:19:01;10.05;;;7.63;;
74577;SDS011;63173;49.086;33.418;2023-05-27T00:21:27;14.15;;;7.85;;
74577;SDS011;63173;49.086;33.418;2023-05-27T00:23:53;13.48;;;8.50;;
74577;SDS011;63173;49.086;33.418;2023-05-27T00:26:18;12.75;;;7.80;;
74577;SDS011;63173;49.086;33.418;2023-05-27T00:28:44;11.43;;;7.72;;
74577;SDS011;63173;49.086;33.418;2023-05-27T00:31:09;10.80;;;7.72;;
74577;SDS011;63173;49.086;33.418;2023-05-27T00:33:35;14.88;;;8.45;;
74577;SDS011;63173;49.086;33.418;2023-05-27T00:36:00;11.32;;;7.93;;
74577;SDS011;63173;49.086;33.418;2023-05-27T00:38:25;14.50;;;8.40;;
74577;SDS011;63173;49.086;33.418;2023-05-27T00:40:52;16.13;;;8.27;;
74577;SDS011;63173;49.086;33.418;2023-05-27T00:43:18;15.93;;;9.00;;
74577;SDS011;63173;49.086;33.418;2023-05-27T00:45:44;23.55;;;9.43;;
74577;SDS011;63173;49.086;33.418;2023-05-27T00:48:09;28.83;;;9.60;;
74577;SDS011;63173;49.086;33.418;2023-05-27T00:50:35;31.90;;;10.45;;
74577;SDS011;63173;49.086;33.418;2023-05-27T00:53:01;28.52;;;10.23;;
74577;SDS011;63173;49.086;33.418;2023-05-27T00:55:27;46.97;;;11.00;;
74577;SDS011;63173;49.086;33.418;2023-05-27T00:57:53;27.70;;;10.00;;
74577;SDS011;63173;49.086;33.418;2023-05-27T01:00:19;25.15;;;10.60;;
74577;SDS011;63173;49.086;33.418;2023-05-27T01:02:46;22.38;;;10.25;;
74577;SDS011;63173;49.086;33.418;2023-05-27T01:05:13;21.52;;;10.10;;
74577;SDS011;63173;49.086;33.418;2023-05-27T01:13:02;18.85;;;9.65;;
74577;SDS011;63173;49.086;33.418;2023-05-27T01:15:34;24.65;;;10.27;;
74577;SDS011;63173;49.086;33.418;2023-05-27T01:18:01;16.52;;;8.95;;
74577;SDS011;63173;49.086;33.418;2023-05-27T01:20:28;14.07;;;9.30;;
74577;SDS011;63173;49.086;33.418;2023-05-27T01:22:54;15.57;;;9.70;;
74577;SDS011;63173;49.086;33.418;2023-05-27T01:25:22;19.08;;;9.50;;
74577;SDS011;63173;49.086;33.418;2023-05-27T01:27:48;14.25;;;10.00;;
74577;SDS011;63173;49.086;33.418;2023-05-27T01:30:14;20.75;;;10.15;;
74577;SDS011;63173;49.086;33.418;2023-05-27T01:32:45;15.57;;;10.27;;
74577;SDS011;63173;49.086;33.418;2023-05-27T01:37:42;13.18;;;8.75;;
74577;SDS011;63173;49.086;33.418;2023-05-27T01:40:10;17.38;;;9.65;;
74577;SDS011;63173;49.086;33.418;2023-05-27T01:42:38;14.27;;;8.65;;
74577;SDS011;63173;49.086;33.418;2023-05-27T01:45:05;12.38;;;8.73;;
74577;SDS011;63173;49.086;33.418;2023-05-27T01:47:32;13.40;;;8.30;;
74577;SDS011;63173;49.086;33.418;2023-05-27T01:49:58;15.75;;;8.73;;
74577;SDS011;63173;49.086;33.418;2023-05-27T01:52:23;13.73;;;8.90;;
74577;SDS011;63173;49.086;33.418;2023-05-27T01:54:49;13.50;;;8.80;;
74577;SDS011;63173;49.086;33.418;2023-05-27T01:57:15;12.93;;;9.02;;
74577;SDS011;63173;49.086;33.418;2023-05-27T01:59:41;14.43;;;9.02;;
74577;SDS011;63173;49.086;33.418;2023-05-27T02:02:07;15.70;;;10.05;;
74577;SDS011;63173;49.086;33.418;2023-05-27T02:04:32;12.82;;;8.27;;
74577;SDS011;63173;49.086;33.418;2023-05-27T02:06:57;11.85;;;8.30;;
74577;SDS011;63173;49.086;33.418;2023-05-27T02:09:23;10.68;;;7.85;;
74577;SDS011;63173;49.086;33.418;2023-05-27T02:11:48;11.35;;;7.82;;
74577;SDS011;63173;49.086;33.418;2023-05-27T02:14:14;13.57;;;8.50;;
74577;SDS011;63173;49.086;33.418;2023-05-27T02:16:39;12.25;;;7.90;;
74577;SDS011;63173;49.086;33.418;2023-05-27T02:19:05;12.43;;;7.72;;
74577;SDS011;63173;49.086;33.418;2023-05-27T02:21:30;14.15;;;7.97;;
74577;SDS011;63173;49.086;33.418;2023-05-27T02:23:56;12.50;;;7.88;;
74577;SDS011;63173;49.086;33.418;2023-05-27T02:26:22;14.05;;;7.82;;
74577;SDS011;63173;49.086;33.418;2023-05-27T02:28:47;13.77;;;7.60;;
74577;SDS011;63173;49.086;33.418;2023-05-27T02:31:13;16.20;;;7.65;;
74577;SDS011;63173;49.086;33.418;2023-05-27T02:33:38;12.98;;;8.13;;
74577;SDS011;63173;49.086;33.418;2023-05-27T02:36:04;12.88;;;7.47;;
74577;SDS011;63173;49.086;33.418;2023-05-27T02:38:31;11.43;;;7.65;;
74577;SDS011;63173;49.086;33.418;2023-05-27T02:40:56;12.05;;;7.93;;
74577;SDS011;63173;49.086;33.418;2023-05-27T02:43:22;12.32;;;8.13;;
74577;SDS011;63173;49.086;33.418;2023-05-27T02:45:47;11.02;;;7.55;;
74577;SDS011;63173;49.086;33.418;2023-05-27T02:48:12;12.63;;;7.43;;
74577;SDS011;63173;49.086;33.418;2023-05-27T02:50:38;12.57;;;7.78;;
74577;SDS011;63173;49.086;33.418;2023-05-27T02:53:03;10.70;;;7.35;;
74577;SDS011;63173;49.086;33.418;2023-05-27T02:55:29;10.93;;;7.35;;
74577;SDS011;63173;49.086;33.418;2023-05-27T02:57:54;13.40;;;8.52;;
74577;SDS011;63173;49.086;33.418;2023-05-27T03:00:20;12.25;;;8.40;;
74577;SDS011;63173;49.086;33.418;2023-05-27T03:02:45;13.40;;;7.82;;
74577;SDS011;63173;49.086;33.418;2023-05-27T03:05:12;15.75;;;7.78;;
74577;SDS011;63173;49.086;33.418;2023-05-27T03:07:37;15.85;;;8.55;;
74577;SDS011;63173;49.086;33.418;2023-05-27T03:10:03;11.27;;;7.88;;
74577;SDS011;63173;49.086;33.418;2023-05-27T03:12:29;11.38;;;8.32;;
74577;SDS011;63173;49.086;33.418;2023-05-27T03:14:54;13.82;;;8.82;;
74577;SDS011;63173;49.086;33.418;2023-05-27T03:17:20;18.70;;;9.73;;
74577;SDS011;63173;49.086;33.418;2023-05-27T03:19:45;13.27;;;9.13;;
74577;SDS011;63173;49.086;33.418;2023-05-27T03:22:11;15.82;;;9.95;;
74577;SDS011;63173;49.086;33.418;2023-05-27T03:24:37;17.45;;;9.50;;
74577;SDS011;63173;49.086;33.418;2023-05-27T03:27:02;17.10;;;9.40;;
74577;SDS011;63173;49.086;33.418;2023-05-27T03:29:28;16.98;;;9.40;;
74577;SDS011;63173;49.086;33.418;2023-05-27T03:31:54;16.60;;;9.93;;
74577;SDS011;63173;49.086;33.418;2023-05-27T03:34:20;14.98;;;9.88;;
74577;SDS011;63173;49.086;33.418;2023-05-27T03:36:45;20.33;;;10.32;;
74577;SDS011;63173;49.086;33.418;2023-05-27T03:39:11;21.58;;;10.07;;
74577;SDS011;63173;49.086;33.418;2023-05-27T03:41:37;16.33;;;9.05;;
74577;SDS011;63173;49.086;33.418;2023-05-27T03:44:03;20.23;;;9.75;;
74577;SDS011;63173;49.086;33.418;2023-05-27T03:46:29;20.30;;;9.35;;
74577;SDS011;63173;49.086;33.418;2023-05-27T03:48:54;18.85;;;9.73;;
74577;SDS011;63173;49.086;33.418;2023-05-27T03:51:20;19.45;;;9.93;;
74577;SDS011;63173;49.086;33.418;2023-05-27T03:53:46;17.48;;;9.80;;
74577;SDS011;63173;49.086;33.418;2023-05-27T03:56:12;25.05;;;9.25;;
74577;SDS011;63173;49.086;33.418;2023-05-27T03:58:37;19.20;;;9.55;;
74577;SDS011;63173;49.086;33.418;2023-05-27T04:01:03;23.00;;;9.40;;
74577;SDS011;63173;49.086;33.418;2023-05-27T04:03:28;18.77;;;10.05;;
74577;SDS011;63173;49.086;33.418;2023-05-27T04:05:54;18.00;;;8.52;;
74577;SDS011;63173;49.086;33.418;2023-05-27T04:08:21;19.48;;;9.20;;
74577;SDS011;63173;49.086;33.418;2023-05-27T04:10:47;18.58;;;9.18;;
74577;SDS011;63173;49.086;33.418;2023-05-27T04:13:13;13.60;;;6.90;;
74577;SDS011;63173;49.086;33.418;2023-05-27T04:15:39;11.27;;;6.78;;
74577;SDS011;63173;49.086;33.418;2023-05-27T04:18:05;11.85;;;6.18;;
74577;SDS011;63173;49.086;33.418;2023-05-27T04:20:36;13.02;;;6.57;;
74577;SDS011;63173;49.086;33.418;2023-05-27T04:23:05;10.23;;;5.82;;
74577;SDS011;63173;49.086;33.418;2023-05-27T04:25:31;9.68;;;5.65;;
74577;SDS011;63173;49.086;33.418;2023-05-27T04:27:56;8.38;;;5.95;;
74577;SDS011;63173;49.086;33.418;2023-05-27T04:30:22;8.30;;;5.13;;
74577;SDS011;63173;49.086;33.418;2023-05-27T04:32:48;10.38;;;5.60;;
74577;SDS011;63173;49.086;33.418;2023-05-27T04:35:13;10.27;;;5.88;;
74577;SDS011;63173;49.086;33.418;2023-05-27T04:37:39;11.20;;;6.63;;
74577;SDS011;63173;49.086;33.418;2023-05-27T04:40:06;10.15;;;6.00;;
74577;SDS011;63173;49.086;33.418;2023-05-27T04:42:33;10.18;;;5.30;;
74577;SDS011;63173;49.086;33.418;2023-05-27T04:45:02;6.07;;;4.65;;
74577;SDS011;63173;49.086;33.418;2023-05-27T04:47:28;14.57;;;5.00;;
74577;SDS011;63173;49.086;33.418;2023-05-27T04:49:55;7.50;;;5.00;;
74577;SDS011;63173;49.086;33.418;2023-05-27T04:52:21;6.88;;;5.00;;
74577;SDS011;63173;49.086;33.418;2023-05-27T04:54:48;12.60;;;5.82;;
74577;SDS011;63173;49.086;33.418;2023-05-27T04:57:14;13.27;;;6.10;;
74577;SDS011;63173;49.086;33.418;2023-05-27T04:59:43;8.02;;;5.65;;
74577;SDS011;63173;49.086;33.418;2023-05-27T05:05:11;12.05;;;6.97;;
74577;SDS011;63173;49.086;33.418;2023-05-27T05:07:37;12.80;;;6.85;;
74577;SDS011;63173;49.086;33.418;2023-05-27T05:10:08;20.83;;;7.32;;
74577;SDS011;63173;49.086;33.418;2023-05-27T05:12:34;9.25;;;6.18;;
74577;SDS011;63173;49.086;33.418;2023-05-27T05:15:00;12.68;;;6.63;;
74577;SDS011;63173;49.086;33.418;2023-05-27T05:17:25;14.27;;;6.53;;
74577;SDS011;63173;49.086;33.418;2023-05-27T05:19:51;18.00;;;6.60;;
74577;SDS011;63173;49.086;33.418;2023-05-27T05:22:17;19.85;;;6.75;;
74577;SDS011;63173;49.086;33.418;2023-05-27T05:24:48;12.48;;;6.78;;
74577;SDS011;63173;49.086;33.418;2023-05-27T05:27:14;14.10;;;6.13;;
74577;SDS011;63173;49.086;33.418;2023-05-27T05:29:40;11.45;;;6.22;;
74577;SDS011;63173;49.086;33.418;2023-05-27T05:32:06;11.60;;;6.28;;
74577;SDS011;63173;49.086;33.418;2023-05-27T05:34:33;16.35;;;5.90;;
74577;SDS011;63173;49.086;33.418;2023-05-27T05:36:59;10.35;;;8.40;;
74577;SDS011;63173;49.086;33.418;2023-05-27T05:39:24;8.52;;;5.70;;
74577;SDS011;63173;49.086;33.418;2023-05-27T05:41:50;9.60;;;6.35;;
74577;SDS011;63173;49.086;33.418;2023-05-27T05:44:16;12.93;;;6.32;;
74577;SDS011;63173;49.086;33.418;2023-05-27T05:46:41;12.98;;;6.60;;
74577;SDS011;63173;49.086;33.418;2023-05-27T05:49:07;13.32;;;6.97;;
74577;SDS011;63173;49.086;33.418;2023-05-27T05:51:32;9.15;;;5.70;;
74577;SDS011;63173;49.086;33.418;2023-05-27T05:53:58;13.90;;;6.18;;
74577;SDS011;63173;49.086;33.418;2023-05-27T05:56:24;10.70;;;5.65;;
74577;SDS011;63173;49.086;33.418;2023-05-27T05:58:51;8.85;;;4.95;;
74577;SDS011;63173;49.086;33.418;2023-05-27T06:01:16;14.40;;;5.40;;
74577;SDS011;63173;49.086;33.418;2023-05-27T06:03:42;9.35;;;5.65;;
74577;SDS011;63173;49.086;33.418;2023-05-27T06:06:08;9.98;;;5.40;;
74577;SDS011;63173;49.086;33.418;2023-05-27T06:08:33;11.73;;;5.25;;
74577;SDS011;63173;49.086;33.418;2023-05-27T06:10:59;6.85;;;5.22;;
74577;SDS011;63173;49.086;33.418;2023-05-27T06:13:24;7.13;;;5.20;;
74577;SDS011;63173;49.086;33.418;2023-05-27T06:15:50;8.57;;;5.15;;
74577;SDS011;63173;49.086;33.418;2023-05-27T06:18:15;8.23;;;5.05;;
74577;SDS011;63173;49.086;33.418;2023-05-27T06:20:41;10.43;;;5.20;;
74577;SDS011;63173;49.086;33.418;2023-05-27T06:23:06;8.75;;;5.97;;
74577;SDS011;63173;49.086;33.418;2023-05-27T06:25:32;10.45;;;5.32;;
74577;SDS011;63173;49.086;33.418;2023-05-27T06:27:58;12.25;;;5.80;;
74577;SDS011;63173;49.086;33.418;2023-05-27T06:30:24;12.63;;;6.93;;
74577;SDS011;63173;49.086;33.418;2023-05-27T06:32:50;7.45;;;5.28;;
74577;SDS011;63173;49.086;33.418;2023-05-27T06:35:16;8.82;;;5.00;;
74577;SDS011;63173;49.086;33.418;2023-05-27T06:37:41;8.10;;;4.90;;
74577;SDS011;63173;49.086;33.418;2023-05-27T06:40:07;9.90;;;5.43;;
74577;SDS011;63173;49.086;33.418;2023-05-27T06:42:33;21.20;;;5.50;;
74577;SDS011;63173;49.086;33.418;2023-05-27T06:44:58;8.27;;;5.20;;
74577;SDS011;63173;49.086;33.418;2023-05-27T06:47:23;10.82;;;5.07;;
74577;SDS011;63173;49.086;33.418;2023-05-27T06:49:49;7.60;;;5.10;;
74577;SDS011;63173;49.086;33.418;2023-05-27T06:52:14;14.65;;;5.38;;
74577;SDS011;63173;49.086;33.418;2023-05-27T06:54:41;12.32;;;6.63;;
74577;SDS011;63173;49.086;33.418;2023-05-27T06:57:07;12.43;;;7.30;;
74577;SDS011;63173;49.086;33.418;2023-05-27T06:59:33;7.07;;;5.75;;
74577;SDS011;63173;49.086;33.418;2023-05-27T07:01:59;12.65;;;5.30;;
74577;SDS011;63173;49.086;33.418;2023-05-27T07:04:24;11.43;;;5.22;;
74577;SDS011;63173;49.086;33.418;2023-05-27T07:06:50;6.32;;;4.88;;
74577;SDS011;63173;49.086;33.418;2023-05-27T07:09:15;8.45;;;5.32;;
74577;SDS011;63173;49.086;33.418;2023-05-27T07:11:41;11.45;;;6.38;;
74577;SDS011;63173;49.086;33.418;2023-05-27T07:14:06;12.60;;;7.35;;
74577;SDS011;63173;49.086;33.418;2023-05-27T07:16:34;11.00;;;7.47;;
74577;SDS011;63173;49.086;33.418;2023-05-27T07:19:00;12.75;;;7.50;;
74577;SDS011;63173;49.086;33.418;2023-05-27T07:21:25;12.27;;;7.63;;
74577;SDS011;63173;49.086;33.418;2023-05-27T07:23:51;12.23;;;8.38;;
74577;SDS011;63173;49.086;33.418;2023-05-27T07:26:16;15.45;;;8.35;;
74577;SDS011;63173;49.086;33.418;2023-05-27T07:28:41;12.63;;;9.00;;
74577;SDS011;63173;49.086;33.418;2023-05-27T07:31:07;11.73;;;9.02;;
74577;SDS011;63173;49.086;33.418;2023-05-27T07:33:32;13.55;;;8.68;;
74577;SDS011;63173;49.086;33.418;2023-05-27T07:35:58;12.52;;;9.90;;
74577;SDS011;63173;49.086;33.418;2023-05-27T07:38:23;14.20;;;10.50;;
74577;SDS011;63173;49.086;33.418;2023-05-27T07:40:48;15.70;;;11.23;;
74577;SDS011;63173;49.086;33.418;2023-05-27T07:43:14;16.02;;;11.05;;
74577;SDS011;63173;49.086;33.418;2023-05-27T07:45:40;18.27;;;12.02;;
74577;SDS011;63173;49.086;33.418;2023-05-27T07:48:05;13.50;;;10.40;;
74577;SDS011;63173;49.086;33.418;2023-05-27T07:50:31;17.00;;;11.07;;
74577;SDS011;63173;49.086;33.418;2023-05-27T07:52:56;17.55;;;10.10;;
74577;SDS011;63173;49.086;33.418;2023-05-27T07:55:22;13.70;;;10.70;;
74577;SDS011;63173;49.086;33.418;2023-05-27T07:57:47;13.98;;;9.73;;
74577;SDS011;63173;49.086;33.418;2023-05-27T08:00:13;14.95;;;10.20;;
74577;SDS011;63173;49.086;33.418;2023-05-27T08:02:38;16.10;;;9.18;;
74577;SDS011;63173;49.086;33.418;2023-05-27T08:05:04;12.20;;;8.57;;
74577;SDS011;63173;49.086;33.418;2023-05-27T08:07:30;14.75;;;10.35;;
74577;SDS011;63173;49.086;33.418;2023-05-27T08:09:55;13.43;;;8.48;;
74577;SDS011;63173;49.086;33.418;2023-05-27T08:12:21;9.50;;;7.15;;
74577;SDS011;63173;49.086;33.418;2023-05-27T08:14:48;10.35;;;6.47;;
74577;SDS011;63173;49.086;33.418;2023-05-27T08:17:14;9.48;;;6.68;;
74577;SDS011;63173;49.086;33.418;2023-05-27T08:19:40;11.88;;;6.85;;
74577;SDS011;63173;49.086;33.418;2023-05-27T08:22:06;8.55;;;6.25;;
74577;SDS011;63173;49.086;33.418;2023-05-27T08:24:34;9.48;;;6.35;;
74577;SDS011;63173;49.086;33.418;2023-05-27T08:26:59;9.68;;;6.20;;
74577;SDS011;63173;49.086;33.418;2023-05-27T08:29:25;9.05;;;5.78;;
74577;SDS011;63173;49.086;33.418;2023-05-27T08:31:52;10.40;;;6.80;;
74577;SDS011;63173;49.086;33.418;2023-05-27T08:34:18;10.77;;;7.15;;
74577;SDS011;63173;49.086;33.418;2023-05-27T08:36:44;10.65;;;6.15;;
74577;SDS011;63173;49.086;33.418;2023-05-27T08:39:09;11.70;;;5.88;;
74577;SDS011;63173;49.086;33.418;2023-05-27T08:41:35;7.93;;;5.90;;
74577;SDS011;63173;49.086;33.418;2023-05-27T08:44:01;11.00;;;7.05;;
74577;SDS011;63173;49.086;33.418;2023-05-27T08:46:27;7.78;;;6.13;;
74577;SDS011;63173;49.086;33.418;2023-05-27T08:48:53;11.18;;;6.25;;
74577;SDS011;63173;49.086;33.418;2023-05-27T08:51:20;9.35;;;6.07;;
74577;SDS011;63173;49.086;33.418;2023-05-27T08:53:47;8.52;;;5.68;;
74577;SDS011;63173;49.086;33.418;2023-05-27T08:56:14;7.43;;;5.22;;
74577;SDS011;63173;49.086;33.418;2023-05-27T08:58:43;10.15;;;6.00;;
74577;SDS011;63173;49.086;33.418;2023-05-27T09:01:09;6.70;;;5.10;;
74577;SDS011;63173;49.086;33.418;2023-05-27T09:03:34;7.88;;;5.32;;
74577;SDS011;63173;49.086;33.418;2023-05-27T09:06:01;14.05;;;4.43;;
74577;SDS011;63173;49.086;33.418;2023-05-27T09:08:29;8.85;;;5.65;;
74577;SDS011;63173;49.086;33.418;2023-05-27T09:10:55;7.30;;;5.43;;
74577;SDS011;63173;49.086;33.418;2023-05-27T09:13:27;8.23;;;5.07;;
74577;SDS011;63173;49.086;33.418;2023-05-27T09:18:29;7.18;;;5.15;;
74577;SDS011;63173;49.086;33.418;2023-05-27T09:20:56;9.48;;;5.22;;
74577;SDS011;63173;49.086;33.418;2023-05-27T09:23:22;10.35;;;5.40;;
74577;SDS011;63173;49.086;33.418;2023-05-27T09:25:48;8.85;;;5.10;;
74577;SDS011;63173;49.086;33.418;2023-05-27T09:28:21;10.23;;;5.50;;
74577;SDS011;63173;49.086;33.418;2023-05-27T09:30:50;7.35;;;5.38;;
74577;SDS011;63173;49.086;33.418;2023-05-27T09:33:21;10.40;;;4.95;;
74577;SDS011;63173;49.086;33.418;2023-05-27T09:35:47;9.48;;;5.80;;
74577;SDS011;63173;49.086;33.418;2023-05-27T09:38:13;6.78;;;5.00;;
74577;SDS011;63173;49.086;33.418;2023-05-27T09:40:39;10.40;;;6.60;;
74577;SDS011;63173;49.086;33.418;2023-05-27T09:43:06;10.52;;;6.00;;
74577;SDS011;63173;49.086;33.418;2023-05-27T09:45:31;7.40;;;4.90;;
74577;SDS011;63173;49.086;33.418;2023-05-27T09:47:57;6.80;;;4.65;;
74577;SDS011;63173;49.086;33.418;2023-05-27T09:50:26;8.20;;;5.50;;
74577;SDS011;63173;49.086;33.418;2023-05-27T09:52:53;13.30;;;6.55;;
74577;SDS011;63173;49.086;33.418;2023-05-27T09:55:20;10.57;;;6.30;;
74577;SDS011;63173;49.086;33.418;2023-05-27T09:57:45;16.75;;;6.20;;
74577;SDS011;63173;49.086;33.418;2023-05-27T10:00:11;8.25;;;4.60;;
74577;SDS011;63173;49.086;33.418;2023-05-27T10:02:41;12.45;;;4.85;;
74577;SDS011;63173;49.086;33.418;2023-05-27T10:05:11;11.95;;;4.30;;
74577;SDS011;63173;49.086;33.418;2023-05-27T10:07:38;6.72;;;4.28;;
74577;SDS011;63173;49.086;33.418;2023-05-27T10:10:09;14.07;;;5.25;;
74577;SDS011;63173;49.086;33.418;2023-05-27T10:12:39;19.20;;;5.28;;
74577;SDS011;63173;49.086;33.418;2023-05-27T10:15:06;31.35;;;6.05;;
74577;SDS011;63173;49.086;33.418;2023-05-27T10:17:49;10.18;;;5.55;;
74577;SDS011;63173;49.086;33.418;2023-05-27T10:20:38;16.52;;;6.38;;
74577;SDS011;63173;49.086;33.418;2023-05-27T10:23:09;21.95;;;8.20;;
74577;SDS011;63173;49.086;33.418;2023-05-27T10:25:45;13.90;;;8.82;;
74577;SDS011;63173;49.086;33.418;2023-05-27T10:28:12;11.93;;;8.05;;
74577;SDS011;63173;49.086;33.418;2023-05-27T10:30:48;18.20;;;10.60;;
74577;SDS011;63173;49.086;33.418;2023-05-27T10:33:14;16.40;;;10.65;;
74577;SDS011;63173;49.086;33.418;2023-05-27T10:35:40;11.63;;;9.30;;
74577;SDS011;63173;49.086;33.418;2023-05-27T10:38:16;11.68;;;8.85;;
74577;SDS011;63173;49.086;33.418;2023-05-27T10:40:43;13.95;;;9.85;;
74577;SDS011;63173;49.086;33.418;2023-05-27T10:43:14;10.18;;;7.97;;
74577;SDS011;63173;49.086;33.418;2023-05-27T10:45:43;8.60;;;6.97;;
74577;SDS011;63173;49.086;33.418;2023-05-27T10:48:19;7.30;;;6.20;;
74577;SDS011;63173;49.086;33.418;2023-05-27T10:50:50;13.63;;;7.05;;
74577;SDS011;63173;49.086;33.418;2023-05-27T10:53:18;9.60;;;6.00;;
74577;SDS011;63173;49.086;33.418;2023-05-27T10:55:47;11.13;;;7.00;;
74577;SDS011;63173;49.086;33.418;2023-05-27T10:58:16;13.98;;;7.60;;
74577;SDS011;63173;49.086;33.418;2023-05-27T11:00:42;8.60;;;5.88;;
74577;SDS011;63173;49.086;33.418;2023-05-27T11:03:20;6.75;;;4.40;;
74577;SDS011;63173;49.086;33.418;2023-05-27T11:05:55;7.57;;;4.65;;
74577;SDS011;63173;49.086;33.418;2023-05-27T11:08:34;25.42;;;6.85;;
74577;SDS011;63173;49.086;33.418;2023-05-27T11:11:06;13.68;;;6.65;;
74577;SDS011;63173;49.086;33.418;2023-05-27T11:13:33;39.20;;;9.40;;
74577;SDS011;63173;49.086;33.418;2023-05-27T11:16:10;10.50;;;6.22;;
74577;SDS011;63173;49.086;33.418;2023-05-27T11:18:38;9.15;;;6.13;;
74577;SDS011;63173;49.086;33.418;2023-05-27T11:21:08;10.85;;;6.35;;
74577;SDS011;63173;49.086;33.418;2023-05-27T11:23:41;10.40;;;6.68;;
74577;SDS011;63173;49.086;33.418;2023-05-27T11:28:51;7.93;;;5.25;;
74577;SDS011;63173;49.086;33.418;2023-05-27T11:31:21;9.85;;;5.35;;
74577;SDS011;63173;49.086;33.418;2023-05-27T11:33:51;6.28;;;3.45;;
74577;SDS011;63173;49.086;33.418;2023-05-27T11:36:17;11.05;;;3.35;;
74577;SDS011;63173;49.086;33.418;2023-05-27T11:38:50;9.73;;;4.05;;
74577;SDS011;63173;49.086;33.418;2023-05-27T11:41:27;6.70;;;5.30;;
74577;SDS011;63173;49.086;33.418;2023-05-27T11:43:58;12.55;;;6.18;;
74577;SDS011;63173;49.086;33.418;2023-05-27T11:49:02;8.45;;;5.97;;
74577;SDS011;63173;49.086;33.418;2023-05-27T11:51:29;9.57;;;5.78;;
74577;SDS011;63173;49.086;33.418;2023-05-27T11:53:55;12.18;;;4.55;;
74577;SDS011;63173;49.086;33.418;2023-05-27T11:56:21;8.32;;;3.50;;
74577;SDS011;63173;49.086;33.418;2023-05-27T11:58:46;5.22;;;3.15;;
74577;SDS011;63173;49.086;33.418;2023-05-27T12:01:12;5.53;;;3.15;;
74577;SDS011;63173;49.086;33.418;2023-05-27T12:03:38;5.68;;;2.90;;
74577;SDS011;63173;49.086;33.418;2023-05-27T12:06:03;4.38;;;2.70;;
74577;SDS011;63173;49.086;33.418;2023-05-27T12:08:29;5.38;;;2.92;;
74577;SDS011;63173;49.086;33.418;2023-05-27T12:10:54;6.57;;;2.90;;
74577;SDS011;63173;49.086;33.418;2023-05-27T12:13:20;8.45;;;3.58;;
74577;SDS011;63173;49.086;33.418;2023-05-27T12:15:46;6.80;;;3.20;;
74577;SDS011;63173;49.086;33.418;2023-05-27T12:18:12;5.85;;;2.88;;
74577;SDS011;63173;49.086;33.418;2023-05-27T12:20:38;8.13;;;3.10;;
74577;SDS011;63173;49.086;33.418;2023-05-27T12:23:03;7.05;;;2.80;;
74577;SDS011;63173;49.086;33.418;2023-05-27T12:25:29;4.78;;;2.22;;
74577;SDS011;63173;49.086;33.418;2023-05-27T12:27:54;4.10;;;2.58;;
74577;SDS011;63173;49.086;33.418;2023-05-27T12:30:20;5.18;;;2.15;;
74577;SDS011;63173;49.086;33.418;2023-05-27T12:32:45;9.98;;;2.85;;
74577;SDS011;63173;49.086;33.418;2023-05-27T12:35:10;7.07;;;3.10;;
74577;SDS011;63173;49.086;33.418;2023-05-27T12:37:36;7.47;;;2.80;;
74577;SDS011;63173;49.086;33.418;2023-05-27T12:40:01;8.68;;;2.92;;
74577;SDS011;63173;49.086;33.418;2023-05-27T12:42:29;12.90;;;2.85;;
74577;SDS011;63173;49.086;33.418;2023-05-27T12:44:56;8.25;;;3.13;;
74577;SDS011;63173;49.086;33.418;2023-05-27T12:47:21;8.13;;;3.25;;
74577;SDS011;63173;49.086;33.418;2023-05-27T12:49:46;6.90;;;2.88;;
74577;SDS011;63173;49.086;33.418;2023-05-27T12:52:12;9.80;;;2.72;;
74577;SDS011;63173;49.086;33.418;2023-05-27T12:54:37;8.05;;;2.95;;
74577;SDS011;63173;49.086;33.418;2023-05-27T12:57:03;7.35;;;2.80;;
74577;SDS011;63173;49.086;33.418;2023-05-27T12:59:31;12.52;;;3.30;;
74577;SDS011;63173;49.086;33.418;2023-05-27T13:01:58;9.20;;;3.10;;
74577;SDS011;63173;49.086;33.418;2023-05-27T13:04:23;7.97;;;2.80;;
74577;SDS011;63173;49.086;33.418;2023-05-27T13:06:49;12.52;;;3.67;;
74577;SDS011;63173;49.086;33.418;2023-05-27T13:09:15;7.78;;;2.67;;
74577;SDS011;63173;49.086;33.418;2023-05-27T13:11:41;7.25;;;4.22;;
74577;SDS011;63173;49.086;33.418;2023-05-27T13:14:08;10.50;;;4.65;;
74577;SDS011;63173;49.086;33.418;2023-05-27T13:16:33;10.15;;;3.25;;
74577;SDS011;63173;49.086;33.418;2023-05-27T13:18:59;4.35;;;2.80;;
74577;SDS011;63173;49.086;33.418;2023-05-27T13:21:25;7.07;;;2.95;;
74577;SDS011;63173;49.086;33.418;2023-05-27T13:23:51;6.93;;;2.70;;
74577;SDS011;63173;49.086;33.418;2023-05-27T13:26:17;6.50;;;3.00;;
74577;SDS011;63173;49.086;33.418;2023-05-27T13:28:43;6.03;;;2.85;;
74577;SDS011;63173;49.086;33.418;2023-05-27T13:31:08;7.30;;;2.92;;
74577;SDS011;63173;49.086;33.418;2023-05-27T13:33:34;4.65;;;3.20;;
74577;SDS011;63173;49.086;33.418;2023-05-27T13:36:00;10.93;;;4.65;;
74577;SDS011;63173;49.086;33.418;2023-05-27T13:38:25;4.95;;;3.65;;
74577;SDS011;63173;49.086;33.418;2023-05-27T13:40:51;7.00;;;3.25;;
74577;SDS011;63173;49.086;33.418;2023-05-27T13:43:16;5.07;;;3.75;;
74577;SDS011;63173;49.086;33.418;2023-05-27T13:45:42;8.18;;;3.28;;
74577;SDS011;63173;49.086;33.418;2023-05-27T13:48:08;7.95;;;3.67;;
74577;SDS011;63173;49.086;33.418;2023-05-27T13:50:33;5.55;;;3.35;;
74577;SDS011;63173;49.086;33.418;2023-05-27T13:53:00;5.50;;;3.72;;
74577;SDS011;63173;49.086;33.418;2023-05-27T13:55:26;5.05;;;3.08;;
74577;SDS011;63173;49.086;33.418;2023-05-27T13:57:51;5.97;;;3.50;;
74577;SDS011;63173;49.086;33.418;2023-05-27T14:00:17;10.85;;;5.55;;
74577;SDS011;63173;49.086;33.418;2023-05-27T14:02:43;12.40;;;5.78;;
74577;SDS011;63173;49.086;33.418;2023-05-27T14:05:10;11.07;;;7.03;;
74577;SDS011;63173;49.086;33.418;2023-05-27T14:07:39;14.23;;;9.27;;
74577;SDS011;63173;49.086;33.418;2023-05-27T14:10:09;14.00;;;8.48;;
74577;SDS011;63173;49.086;33.418;2023-05-27T14:12:35;16.38;;;8.48;;
74577;SDS011;63173;49.086;33.418;2023-05-27T14:15:01;12.20;;;8.40;;
74577;SDS011;63173;49.086;33.418;2023-05-27T14:17:27;13.13;;;8.07;;
74577;SDS011;63173;49.086;33.418;2023-05-27T14:19:53;10.60;;;5.18;;
74577;SDS011;63173;49.086;33.418;2023-05-27T14:22:19;10.68;;;5.53;;
74577;SDS011;63173;49.086;33.418;2023-05-27T14:24:45;8.13;;;4.55;;
74577;SDS011;63173;49.086;33.418;2023-05-27T14:27:10;5.38;;;3.60;;
74577;SDS011;63173;49.086;33.418;2023-05-27T14:29:36;4.78;;;3.25;;
74577;SDS011;63173;49.086;33.418;2023-05-27T14:32:02;7.55;;;3.55;;
74577;SDS011;63173;49.086;33.418;2023-05-27T14:34:28;5.50;;;3.95;;
74577;SDS011;63173;49.086;33.418;2023-05-27T14:36:53;9.07;;;3.80;;
74577;SDS011;63173;49.086;33.418;2023-05-27T14:39:19;6.90;;;4.00;;
74577;SDS011;63173;49.086;33.418;2023-05-27T14:41:45;6.22;;;4.05;;